Terminal Aerodrome Forecast
Issued by NWS

Home | Current Version | Previous Version | Text Only | Print | Product List | Glossary On
Versions: 1 2 3 4 5 6 7 8 9 10 11 12 13 14 15 16 17 18
000
FTUS45 KTFX 162300 RRA
TAFHVR
TAF
KHVR 162341Z 1700/1724 10008KT P6SM SCT035 BKN060
     FM170300 11007KT 6SM BR VCSH SCT008 OVC020
      TEMPO 1704/1708 3SM -SHSN BR BKN008
     FM171400 15007KT P6SM SCT040 BKN080
     FM172000 20011KT P6SM SCT040 BKN080=

USA.gov is the U.S. government's official web portal to all federal, state and local government web resources and services.